sensor_id;sensor_type;location;lat;lon;timestamp;temperature;humidity
22288;DHT22;11312;51.464;6.968;2022-09-09T00:00:47;15.30;99.90
22288;DHT22;11312;51.464;6.968;2022-09-09T00:03:17;15.30;99.90
22288;DHT22;11312;51.464;6.968;2022-09-09T00:06:11;15.20;99.90
22288;DHT22;11312;51.464;6.968;2022-09-09T00:09:01;15.20;99.90
22288;DHT22;11312;51.464;6.968;2022-09-09T00:11:41;15.30;99.90
22288;DHT22;11312;51.464;6.968;2022-09-09T00:14:16;15.30;99.90
22288;DHT22;11312;51.464;6.968;2022-09-09T00:16:47;15.40;99.90
22288;DHT22;11312;51.464;6.968;2022-09-09T00:19:25;15.20;99.90
22288;DHT22;11312;51.464;6.968;2022-09-09T00:22:07;15.40;99.90
22288;DHT22;11312;51.464;6.968;2022-09-09T00:24:44;15.40;99.90
22288;DHT22;11312;51.464;6.968;2022-09-09T00:27:31;15.30;99.90
22288;DHT22;11312;51.464;6.968;2022-09-09T00:32:44;15.10;99.90
22288;DHT22;11312;51.464;6.968;2022-09-09T00:37:35;15.00;99.90
22288;DHT22;11312;51.464;6.968;2022-09-09T00:40:18;15.10;99.90
22288;DHT22;11312;51.464;6.968;2022-09-09T00:42:44;15.10;99.90
22288;DHT22;11312;51.464;6.968;2022-09-09T00:45:19;15.10;99.90
22288;DHT22;11312;51.464;6.968;2022-09-09T00:47:53;15.10;99.90
22288;DHT22;11312;51.464;6.968;2022-09-09T00:50:52;15.20;99.90
22288;DHT22;11312;51.464;6.968;2022-09-09T00:56:40;15.20;99.90
22288;DHT22;11312;51.464;6.968;2022-09-09T01:01:47;15.30;99.90
22288;DHT22;11312;51.464;6.968;2022-09-09T01:04:18;15.30;99.90
22288;DHT22;11312;51.464;6.968;2022-09-09T01:06:52;15.40;99.90
22288;DHT22;11312;51.464;6.968;2022-09-09T01:09:32;15.40;99.90
22288;DHT22;11312;51.464;6.968;2022-09-09T01:12:23;15.40;99.90
22288;DHT22;11312;51.464;6.968;2022-09-09T01:14:56;15.40;99.90
22288;DHT22;11312;51.464;6.968;2022-09-09T01:28:31;15.20;99.90
22288;DHT22;11312;51.464;6.968;2022-09-09T01:30:58;15.20;99.90
22288;DHT22;11312;51.464;6.968;2022-09-09T01:33:25;15.20;99.90
22288;DHT22;11312;51.464;6.968;2022-09-09T01:38:26;15.10;99.90
22288;DHT22;11312;51.464;6.968;2022-09-09T01:40:53;15.20;99.90
22288;DHT22;11312;51.464;6.968;2022-09-09T01:43:23;15.20;99.90
22288;DHT22;11312;51.464;6.968;2022-09-09T01:45:52;15.10;99.90
22288;DHT22;11312;51.464;6.968;2022-09-09T01:48:21;15.10;99.90
22288;DHT22;11312;51.464;6.968;2022-09-09T01:50:48;15.20;99.90
22288;DHT22;11312;51.464;6.968;2022-09-09T01:53:15;15.10;99.90
22288;DHT22;11312;51.464;6.968;2022-09-09T01:55:56;15.00;99.90
22288;DHT22;11312;51.464;6.968;2022-09-09T02:01:14;15.10;99.90
22288;DHT22;11312;51.464;6.968;2022-09-09T02:03:46;15.10;99.90
22288;DHT22;11312;51.464;6.968;2022-09-09T02:06:35;15.10;99.90
22288;DHT22;11312;51.464;6.968;2022-09-09T02:09:04;15.10;99.90
22288;DHT22;11312;51.464;6.968;2022-09-09T02:11:31;14.90;99.90
22288;DHT22;11312;51.464;6.968;2022-09-09T02:16:31;15.00;99.90
22288;DHT22;11312;51.464;6.968;2022-09-09T02:19:21;15.00;99.90
22288;DHT22;11312;51.464;6.968;2022-09-09T02:21:52;15.10;99.90
22288;DHT22;11312;51.464;6.968;2022-09-09T02:24:19;15.20;99.90
22288;DHT22;11312;51.464;6.968;2022-09-09T02:26:46;15.20;99.90
22288;DHT22;11312;51.464;6.968;2022-09-09T02:29:26;15.10;99.90
22288;DHT22;11312;51.464;6.968;2022-09-09T02:31:56;15.20;99.90
22288;DHT22;11312;51.464;6.968;2022-09-09T02:34:23;15.20;99.90
22288;DHT22;11312;51.464;6.968;2022-09-09T02:36:50;15.30;99.90
22288;DHT22;11312;51.464;6.968;2022-09-09T02:39:18;15.30;99.90
22288;DHT22;11312;51.464;6.968;2022-09-09T02:41:44;15.40;99.90
22288;DHT22;11312;51.464;6.968;2022-09-09T02:44:19;15.40;99.90
22288;DHT22;11312;51.464;6.968;2022-09-09T02:55:24;15.50;99.90
22288;DHT22;11312;51.464;6.968;2022-09-09T02:57:55;15.40;99.90
22288;DHT22;11312;51.464;6.968;2022-09-09T03:00:24;15.30;99.90
22288;DHT22;11312;51.464;6.968;2022-09-09T03:02:50;15.40;99.90
22288;DHT22;11312;51.464;6.968;2022-09-09T03:05:17;15.40;99.90
22288;DHT22;11312;51.464;6.968;2022-09-09T03:07:42;15.40;99.90
22288;DHT22;11312;51.464;6.968;2022-09-09T03:10:08;15.40;99.90
22288;DHT22;11312;51.464;6.968;2022-09-09T03:12:34;15.40;99.90
22288;DHT22;11312;51.464;6.968;2022-09-09T03:14:59;15.40;99.90
22288;DHT22;11312;51.464;6.968;2022-09-09T03:17:25;15.30;99.90
22288;DHT22;11312;51.464;6.968;2022-09-09T03:19:53;15.30;99.90
22288;DHT22;11312;51.464;6.968;2022-09-09T03:22:20;15.40;99.90
22288;DHT22;11312;51.464;6.968;2022-09-09T03:24:46;15.30;99.90
22288;DHT22;11312;51.464;6.968;2022-09-09T03:27:12;15.40;99.90
22288;DHT22;11312;51.464;6.968;2022-09-09T03:29:40;15.30;99.90
22288;DHT22;11312;51.464;6.968;2022-09-09T03:32:05;15.30;99.90
22288;DHT22;11312;51.464;6.968;2022-09-09T03:34:31;15.30;99.90
22288;DHT22;11312;51.464;6.968;2022-09-09T03:36:57;15.20;99.90
22288;DHT22;11312;51.464;6.968;2022-09-09T03:39:23;15.30;99.90
22288;DHT22;11312;51.464;6.968;2022-09-09T03:41:48;15.20;99.90
22288;DHT22;11312;51.464;6.968;2022-09-09T03:44:14;15.30;99.90
22288;DHT22;11312;51.464;6.968;2022-09-09T03:46:40;15.30;99.90
22288;DHT22;11312;51.464;6.968;2022-09-09T03:49:05;15.20;99.90
22288;DHT22;11312;51.464;6.968;2022-09-09T03:51:31;15.30;99.90
22288;DHT22;11312;51.464;6.968;2022-09-09T03:53:57;15.40;99.90
22288;DHT22;11312;51.464;6.968;2022-09-09T03:56:24;15.40;99.90
22288;DHT22;11312;51.464;6.968;2022-09-09T03:58:49;15.40;99.90
22288;DHT22;11312;51.464;6.968;2022-09-09T04:01:15;15.40;99.90
22288;DHT22;11312;51.464;6.968;2022-09-09T04:03:43;15.40;99.90
22288;DHT22;11312;51.464;6.968;2022-09-09T04:06:11;15.30;99.90
22288;DHT22;11312;51.464;6.968;2022-09-09T04:08:38;15.30;99.90
22288;DHT22;11312;51.464;6.968;2022-09-09T04:11:05;15.30;99.90
22288;DHT22;11312;51.464;6.968;2022-09-09T04:13:32;15.20;99.90
22288;DHT22;11312;51.464;6.968;2022-09-09T04:16:00;15.10;99.90
22288;DHT22;11312;51.464;6.968;2022-09-09T04:18:27;15.00;99.90
22288;DHT22;11312;51.464;6.968;2022-09-09T04:20:53;15.10;99.90
22288;DHT22;11312;51.464;6.968;2022-09-09T04:23:20;15.10;99.90
22288;DHT22;11312;51.464;6.968;2022-09-09T04:25:51;15.10;99.90
22288;DHT22;11312;51.464;6.968;2022-09-09T04:28:18;15.00;99.90
22288;DHT22;11312;51.464;6.968;2022-09-09T04:30:45;15.00;99.90
22288;DHT22;11312;51.464;6.968;2022-09-09T04:33:12;15.00;99.90
22288;DHT22;11312;51.464;6.968;2022-09-09T04:35:38;14.90;99.90
22288;DHT22;11312;51.464;6.968;2022-09-09T04:38:05;14.90;99.90
22288;DHT22;11312;51.464;6.968;2022-09-09T04:40:32;14.90;99.90
22288;DHT22;11312;51.464;6.968;2022-09-09T04:42:59;14.90;99.90
22288;DHT22;11312;51.464;6.968;2022-09-09T04:45:25;15.10;99.90
22288;DHT22;11312;51.464;6.968;2022-09-09T04:47:51;15.10;99.90
22288;DHT22;11312;51.464;6.968;2022-09-09T04:50:18;15.20;99.90
22288;DHT22;11312;51.464;6.968;2022-09-09T04:52:44;15.30;99.90
22288;DHT22;11312;51.464;6.968;2022-09-09T04:55:10;15.30;99.90
22288;DHT22;11312;51.464;6.968;2022-09-09T04:57:35;15.40;99.90
22288;DHT22;11312;51.464;6.968;2022-09-09T05:00:01;15.30;99.90
22288;DHT22;11312;51.464;6.968;2022-09-09T05:02:28;15.30;99.90
22288;DHT22;11312;51.464;6.968;2022-09-09T05:04:53;15.40;99.90
22288;DHT22;11312;51.464;6.968;2022-09-09T05:07:19;15.40;99.90
22288;DHT22;11312;51.464;6.968;2022-09-09T05:09:44;15.40;99.90
22288;DHT22;11312;51.464;6.968;2022-09-09T05:12:10;15.50;99.90
22288;DHT22;11312;51.464;6.968;2022-09-09T05:14:36;15.50;99.90
22288;DHT22;11312;51.464;6.968;2022-09-09T05:17:03;15.50;99.90
22288;DHT22;11312;51.464;6.968;2022-09-09T05:19:29;15.50;99.90
22288;DHT22;11312;51.464;6.968;2022-09-09T05:21:56;15.50;99.90
22288;DHT22;11312;51.464;6.968;2022-09-09T05:24:22;15.50;99.90
22288;DHT22;11312;51.464;6.968;2022-09-09T05:26:50;15.60;99.90
22288;DHT22;11312;51.464;6.968;2022-09-09T05:29:16;15.60;99.90
22288;DHT22;11312;51.464;6.968;2022-09-09T05:31:45;15.60;99.90
22288;DHT22;11312;51.464;6.968;2022-09-09T05:34:11;15.60;99.90
22288;DHT22;11312;51.464;6.968;2022-09-09T05:36:37;15.60;99.90
22288;DHT22;11312;51.464;6.968;2022-09-09T05:39:03;15.70;99.90
22288;DHT22;11312;51.464;6.968;2022-09-09T05:41:29;15.70;99.90
22288;DHT22;11312;51.464;6.968;2022-09-09T05:43:55;15.80;99.90
22288;DHT22;11312;51.464;6.968;2022-09-09T05:46:22;15.80;99.90
22288;DHT22;11312;51.464;6.968;2022-09-09T05:48:50;15.90;99.90
22288;DHT22;11312;51.464;6.968;2022-09-09T05:51:19;16.00;99.90
22288;DHT22;11312;51.464;6.968;2022-09-09T05:53:46;15.90;99.90
22288;DHT22;11312;51.464;6.968;2022-09-09T05:56:20;16.00;99.90
22288;DHT22;11312;51.464;6.968;2022-09-09T05:58:47;16.00;99.90
22288;DHT22;11312;51.464;6.968;2022-09-09T06:01:15;16.00;99.90
22288;DHT22;11312;51.464;6.968;2022-09-09T06:03:43;16.10;99.90
22288;DHT22;11312;51.464;6.968;2022-09-09T06:06:12;16.10;99.90
22288;DHT22;11312;51.464;6.968;2022-09-09T06:08:40;16.10;99.90
22288;DHT22;11312;51.464;6.968;2022-09-09T06:11:11;16.20;99.90
22288;DHT22;11312;51.464;6.968;2022-09-09T06:13:37;16.20;99.90
22288;DHT22;11312;51.464;6.968;2022-09-09T06:16:05;16.30;99.90
22288;DHT22;11312;51.464;6.968;2022-09-09T06:18:33;16.30;99.90
22288;DHT22;11312;51.464;6.968;2022-09-09T06:21:00;16.40;99.90
22288;DHT22;11312;51.464;6.968;2022-09-09T06:23:27;16.40;99.90
22288;DHT22;11312;51.464;6.968;2022-09-09T06:26:11;16.40;99.90
22288;DHT22;11312;51.464;6.968;2022-09-09T06:28:38;16.50;99.90
22288;DHT22;11312;51.464;6.968;2022-09-09T06:31:09;16.60;99.90
22288;DHT22;11312;51.464;6.968;2022-09-09T06:33:40;16.70;99.90
22288;DHT22;11312;51.464;6.968;2022-09-09T06:36:14;16.70;99.90
22288;DHT22;11312;51.464;6.968;2022-09-09T06:38:41;16.70;99.90
22288;DHT22;11312;51.464;6.968;2022-09-09T06:41:08;16.70;99.90
22288;DHT22;11312;51.464;6.968;2022-09-09T06:43:34;16.70;99.90
22288;DHT22;11312;51.464;6.968;2022-09-09T06:46:12;16.80;99.90
22288;DHT22;11312;51.464;6.968;2022-09-09T06:48:41;16.80;99.90
22288;DHT22;11312;51.464;6.968;2022-09-09T06:51:13;16.90;99.90
22288;DHT22;11312;51.464;6.968;2022-09-09T06:53:40;16.90;99.90
22288;DHT22;11312;51.464;6.968;2022-09-09T06:56:17;16.90;99.90
22288;DHT22;11312;51.464;6.968;2022-09-09T06:58:43;16.90;99.90
22288;DHT22;11312;51.464;6.968;2022-09-09T07:01:11;17.00;99.90
22288;DHT22;11312;51.464;6.968;2022-09-09T07:03:38;17.10;99.90
22288;DHT22;11312;51.464;6.968;2022-09-09T07:06:04;17.30;99.90
22288;DHT22;11312;51.464;6.968;2022-09-09T07:08:30;17.50;99.90
22288;DHT22;11312;51.464;6.968;2022-09-09T07:11:03;17.50;99.90
22288;DHT22;11312;51.464;6.968;2022-09-09T07:13:31;17.40;99.90
22288;DHT22;11312;51.464;6.968;2022-09-09T07:16:04;17.50;99.90
22288;DHT22;11312;51.464;6.968;2022-09-09T07:18:29;17.60;99.90
22288;DHT22;11312;51.464;6.968;2022-09-09T07:20:56;17.80;99.90
22288;DHT22;11312;51.464;6.968;2022-09-09T07:23:23;18.00;99.90
22288;DHT22;11312;51.464;6.968;2022-09-09T07:25:48;18.20;99.90
22288;DHT22;11312;51.464;6.968;2022-09-09T07:28:15;18.70;99.90
22288;DHT22;11312;51.464;6.968;2022-09-09T07:30:41;18.90;99.90
22288;DHT22;11312;51.464;6.968;2022-09-09T07:33:08;19.10;99.90
22288;DHT22;11312;51.464;6.968;2022-09-09T07:35:35;19.40;99.90
22288;DHT22;11312;51.464;6.968;2022-09-09T07:38:02;20.20;45.30
22288;DHT22;11312;51.464;6.968;2022-09-09T07:40:33;20.70;1.00
22288;DHT22;11312;51.464;6.968;2022-09-09T07:42:59;20.80;1.00
22288;DHT22;11312;51.464;6.968;2022-09-09T07:45:26;20.60;99.90
22288;DHT22;11312;51.464;6.968;2022-09-09T07:47:54;20.90;1.00
22288;DHT22;11312;51.464;6.968;2022-09-09T07:50:21;20.90;99.90
22288;DHT22;11312;51.464;6.968;2022-09-09T07:52:47;21.40;61.60
22288;DHT22;11312;51.464;6.968;2022-09-09T07:55:12;21.60;1.00
22288;DHT22;11312;51.464;6.968;2022-09-09T07:57:38;21.70;99.90
22288;DHT22;11312;51.464;6.968;2022-09-09T08:00:04;22.00;1.00
22288;DHT22;11312;51.464;6.968;2022-09-09T08:02:29;21.50;99.90
22288;DHT22;11312;51.464;6.968;2022-09-09T08:04:55;21.30;99.90
22288;DHT22;11312;51.464;6.968;2022-09-09T08:07:22;21.90;99.90
22288;DHT22;11312;51.464;6.968;2022-09-09T08:09:47;22.00;99.90
22288;DHT22;11312;51.464;6.968;2022-09-09T08:12:13;21.80;1.00
22288;DHT22;11312;51.464;6.968;2022-09-09T08:14:39;20.80;99.90
22288;DHT22;11312;51.464;6.968;2022-09-09T08:17:05;20.10;1.00
22288;DHT22;11312;51.464;6.968;2022-09-09T08:19:31;20.00;47.80
22288;DHT22;11312;51.464;6.968;2022-09-09T08:21:59;19.70;99.90
22288;DHT22;11312;51.464;6.968;2022-09-09T08:24:27;20.90;1.00
22288;DHT22;11312;51.464;6.968;2022-09-09T08:26:53;20.90;1.00
22288;DHT22;11312;51.464;6.968;2022-09-09T08:29:19;20.90;99.90
22288;DHT22;11312;51.464;6.968;2022-09-09T08:31:47;21.10;99.90
22288;DHT22;11312;51.464;6.968;2022-09-09T08:34:14;21.00;99.90
22288;DHT22;11312;51.464;6.968;2022-09-09T08:36:43;20.80;1.00
22288;DHT22;11312;51.464;6.968;2022-09-09T08:39:10;20.90;1.70
22288;DHT22;11312;51.464;6.968;2022-09-09T08:44:45;21.90;99.90
22288;DHT22;11312;51.464;6.968;2022-09-09T08:52:39;23.20;1.00
22288;DHT22;11312;51.464;6.968;2022-09-09T08:55:29;23.40;1.00
22288;DHT22;11312;51.464;6.968;2022-09-09T08:58:09;23.30;1.00
22288;DHT22;11312;51.464;6.968;2022-09-09T09:00:41;23.90;1.00
22288;DHT22;11312;51.464;6.968;2022-09-09T09:03:19;24.50;1.00
22288;DHT22;11312;51.464;6.968;2022-09-09T09:10:58;23.10;1.00
22288;DHT22;11312;51.464;6.968;2022-09-09T09:13:45;22.80;1.00
22288;DHT22;11312;51.464;6.968;2022-09-09T09:16:39;23.20;1.00
22288;DHT22;11312;51.464;6.968;2022-09-09T09:19:13;23.70;99.90
22288;DHT22;11312;51.464;6.968;2022-09-09T09:21:43;23.50;99.90
22288;DHT22;11312;51.464;6.968;2022-09-09T09:26:59;21.70;49.50
22288;DHT22;11312;51.464;6.968;2022-09-09T09:29:26;21.60;1.00
22288;DHT22;11312;51.464;6.968;2022-09-09T09:31:55;21.60;99.90
22288;DHT22;11312;51.464;6.968;2022-09-09T09:34:23;22.00;1.00
22288;DHT22;11312;51.464;6.968;2022-09-09T09:36:57;21.80;1.00
22288;DHT22;11312;51.464;6.968;2022-09-09T09:39:28;21.50;99.90
22288;DHT22;11312;51.464;6.968;2022-09-09T09:41:54;21.40;99.90
22288;DHT22;11312;51.464;6.968;2022-09-09T09:44:30;21.50;75.10
22288;DHT22;11312;51.464;6.968;2022-09-09T09:47:12;21.20;1.00
22288;DHT22;11312;51.464;6.968;2022-09-09T09:49:38;20.80;1.00
22288;DHT22;11312;51.464;6.968;2022-09-09T09:52:06;20.60;1.00
22288;DHT22;11312;51.464;6.968;2022-09-09T09:54:39;20.60;1.00
22288;DHT22;11312;51.464;6.968;2022-09-09T09:57:15;20.70;1.00
22288;DHT22;11312;51.464;6.968;2022-09-09T09:59:42;20.70;99.90
22288;DHT22;11312;51.464;6.968;2022-09-09T10:04:42;20.30;99.90
22288;DHT22;11312;51.464;6.968;2022-09-09T10:07:17;20.20;99.90
22288;DHT22;11312;51.464;6.968;2022-09-09T10:09:43;20.10;99.90
22288;DHT22;11312;51.464;6.968;2022-09-09T10:17:34;20.30;1.00
22288;DHT22;11312;51.464;6.968;2022-09-09T10:20:21;20.40;1.00
22288;DHT22;11312;51.464;6.968;2022-09-09T10:22:52;21.90;99.90
22288;DHT22;11312;51.464;6.968;2022-09-09T10:34:06;23.50;1.00
22288;DHT22;11312;51.464;6.968;2022-09-09T10:36:43;22.90;99.90
22288;DHT22;11312;51.464;6.968;2022-09-09T10:39:33;22.40;99.90
22288;DHT22;11312;51.464;6.968;2022-09-09T10:42:20;21.80;99.90
22288;DHT22;11312;51.464;6.968;2022-09-09T10:50:52;21.00;99.90
22288;DHT22;11312;51.464;6.968;2022-09-09T10:53:52;21.40;1.00
22288;DHT22;11312;51.464;6.968;2022-09-09T10:56:21;21.40;99.90
22288;DHT22;11312;51.464;6.968;2022-09-09T11:02:35;21.20;1.00
22288;DHT22;11312;51.464;6.968;2022-09-09T11:08:01;22.10;1.00
22288;DHT22;11312;51.464;6.968;2022-09-09T11:10:46;21.50;55.40
22288;DHT22;11312;51.464;6.968;2022-09-09T11:13:45;21.10;1.00
22288;DHT22;11312;51.464;6.968;2022-09-09T11:19:02;20.70;1.00
22288;DHT22;11312;51.464;6.968;2022-09-09T11:21:37;20.60;49.00
22288;DHT22;11312;51.464;6.968;2022-09-09T11:24:06;20.80;99.90
22288;DHT22;11312;51.464;6.968;2022-09-09T11:26:45;21.20;1.00
22288;DHT22;11312;51.464;6.968;2022-09-09T11:29:50;21.70;99.90
22288;DHT22;11312;51.464;6.968;2022-09-09T11:38:16;21.60;99.90
22288;DHT22;11312;51.464;6.968;2022-09-09T11:40:44;21.70;1.00
22288;DHT22;11312;51.464;6.968;2022-09-09T11:43:25;21.40;1.00
22288;DHT22;11312;51.464;6.968;2022-09-09T11:45:54;21.20;1.00
22288;DHT22;11312;51.464;6.968;2022-09-09T11:51:08;20.90;99.90
22288;DHT22;11312;51.464;6.968;2022-09-09T11:53:35;20.80;1.00
22288;DHT22;11312;51.464;6.968;2022-09-09T11:56:13;20.60;1.00
22288;DHT22;11312;51.464;6.968;2022-09-09T11:59:19;20.50;99.90
22288;DHT22;11312;51.464;6.968;2022-09-09T12:01:50;20.40;99.90
22288;DHT22;11312;51.464;6.968;2022-09-09T12:14:54;22.70;1.00
22288;DHT22;11312;51.464;6.968;2022-09-09T12:17:25;23.80;1.00
22288;DHT22;11312;51.464;6.968;2022-09-09T12:23:03;22.20;1.00
22288;DHT22;11312;51.464;6.968;2022-09-09T12:28:15;21.60;99.90
22288;DHT22;11312;51.464;6.968;2022-09-09T12:30:58;21.00;1.00
22288;DHT22;11312;51.464;6.968;2022-09-09T12:33:34;20.80;99.90
22288;DHT22;11312;51.464;6.968;2022-09-09T12:36:01;20.80;1.00
22288;DHT22;11312;51.464;6.968;2022-09-09T12:38:36;20.70;1.00
22288;DHT22;11312;51.464;6.968;2022-09-09T12:41:03;20.60;99.90
22288;DHT22;11312;51.464;6.968;2022-09-09T12:43:29;21.10;1.00
22288;DHT22;11312;51.464;6.968;2022-09-09T12:46:03;21.30;1.00
22288;DHT22;11312;51.464;6.968;2022-09-09T12:48:41;20.90;1.00
22288;DHT22;11312;51.464;6.968;2022-09-09T12:51:28;20.80;1.00
22288;DHT22;11312;51.464;6.968;2022-09-09T12:53:56;20.30;99.90
22288;DHT22;11312;51.464;6.968;2022-09-09T12:56:24;20.30;99.90
22288;DHT22;11312;51.464;6.968;2022-09-09T12:58:53;20.20;99.90
22288;DHT22;11312;51.464;6.968;2022-09-09T13:01:25;20.00;1.00
22288;DHT22;11312;51.464;6.968;2022-09-09T13:03:51;20.10;1.00
22288;DHT22;11312;51.464;6.968;2022-09-09T13:06:23;20.00;1.00
22288;DHT22;11312;51.464;6.968;2022-09-09T13:08:51;19.80;99.90
22288;DHT22;11312;51.464;6.968;2022-09-09T13:11:41;19.80;99.90
22288;DHT22;11312;51.464;6.968;2022-09-09T13:14:48;19.50;99.90
22288;DHT22;11312;51.464;6.968;2022-09-09T13:17:06;19.10;1.00
22288;DHT22;11312;51.464;6.968;2022-09-09T13:19:33;18.90;1.00
22288;DHT22;11312;51.464;6.968;2022-09-09T13:22:12;18.90;1.00
22288;DHT22;11312;51.464;6.968;2022-09-09T13:24:38;19.10;1.00
22288;DHT22;11312;51.464;6.968;2022-09-09T13:27:26;19.10;14.60
22288;DHT22;11312;51.464;6.968;2022-09-09T13:29:54;19.00;22.90
22288;DHT22;11312;51.464;6.968;2022-09-09T13:32:25;19.10;76.20
22288;DHT22;11312;51.464;6.968;2022-09-09T13:35:00;19.00;1.00
22288;DHT22;11312;51.464;6.968;2022-09-09T13:37:36;19.20;56.40
22288;DHT22;11312;51.464;6.968;2022-09-09T13:40:03;19.10;1.00
22288;DHT22;11312;51.464;6.968;2022-09-09T13:42:41;19.10;1.00
22288;DHT22;11312;51.464;6.968;2022-09-09T13:45:18;19.50;1.00
22288;DHT22;11312;51.464;6.968;2022-09-09T13:47:46;19.90;1.00
22288;DHT22;11312;51.464;6.968;2022-09-09T13:50:29;19.90;99.90
22288;DHT22;11312;51.464;6.968;2022-09-09T13:52:58;19.90;99.90
22288;DHT22;11312;51.464;6.968;2022-09-09T13:55:26;20.00;1.00
22288;DHT22;11312;51.464;6.968;2022-09-09T13:57:54;19.80;99.90
22288;DHT22;11312;51.464;6.968;2022-09-09T14:00:21;19.90;1.00
22288;DHT22;11312;51.464;6.968;2022-09-09T14:02:47;20.80;99.90
22288;DHT22;11312;51.464;6.968;2022-09-09T14:05:13;21.20;1.00
22288;DHT22;11312;51.464;6.968;2022-09-09T14:07:40;21.40;1.00
22288;DHT22;11312;51.464;6.968;2022-09-09T14:10:07;20.80;86.60
22288;DHT22;11312;51.464;6.968;2022-09-09T14:12:33;20.70;99.90
22288;DHT22;11312;51.464;6.968;2022-09-09T14:14:59;20.60;1.00
22288;DHT22;11312;51.464;6.968;2022-09-09T14:17:28;20.70;1.00
22288;DHT22;11312;51.464;6.968;2022-09-09T14:19:56;20.50;99.90
22288;DHT22;11312;51.464;6.968;2022-09-09T14:22:22;20.40;99.90
22288;DHT22;11312;51.464;6.968;2022-09-09T14:24:49;20.60;99.90
22288;DHT22;11312;51.464;6.968;2022-09-09T14:27:16;20.50;1.00
22288;DHT22;11312;51.464;6.968;2022-09-09T14:29:41;20.00;99.90
22288;DHT22;11312;51.464;6.968;2022-09-09T14:32:10;20.00;99.90
22288;DHT22;11312;51.464;6.968;2022-09-09T14:34:36;19.90;99.90
22288;DHT22;11312;51.464;6.968;2022-09-09T14:37:02;20.10;99.90
22288;DHT22;11312;51.464;6.968;2022-09-09T14:39:28;20.20;99.90
22288;DHT22;11312;51.464;6.968;2022-09-09T14:41:53;20.40;99.90
22288;DHT22;11312;51.464;6.968;2022-09-09T14:44:19;20.70;1.00
22288;DHT22;11312;51.464;6.968;2022-09-09T14:46:45;20.70;1.00
22288;DHT22;11312;51.464;6.968;2022-09-09T14:49:10;20.30;1.00
22288;DHT22;11312;51.464;6.968;2022-09-09T14:51:38;20.00;99.90
22288;DHT22;11312;51.464;6.968;2022-09-09T14:54:04;19.70;99.90
22288;DHT22;11312;51.464;6.968;2022-09-09T14:56:31;19.50;1.00
22288;DHT22;11312;51.464;6.968;2022-09-09T14:58:58;19.30;40.20
22288;DHT22;11312;51.464;6.968;2022-09-09T15:01:26;18.30;99.90
22288;DHT22;11312;51.464;6.968;2022-09-09T15:03:55;18.10;99.90
22288;DHT22;11312;51.464;6.968;2022-09-09T15:06:21;17.60;99.90
22288;DHT22;11312;51.464;6.968;2022-09-09T15:08:47;17.10;99.90
22288;DHT22;11312;51.464;6.968;2022-09-09T15:11:14;16.90;99.90
22288;DHT22;11312;51.464;6.968;2022-09-09T15:13:41;17.00;99.90
22288;DHT22;11312;51.464;6.968;2022-09-09T15:18:35;16.80;99.90
22288;DHT22;11312;51.464;6.968;2022-09-09T15:21:03;16.70;99.90
22288;DHT22;11312;51.464;6.968;2022-09-09T15:23:33;16.80;99.90
22288;DHT22;11312;51.464;6.968;2022-09-09T15:25:59;16.70;99.90
22288;DHT22;11312;51.464;6.968;2022-09-09T15:28:25;16.90;99.90
22288;DHT22;11312;51.464;6.968;2022-09-09T15:30:52;16.80;99.90
22288;DHT22;11312;51.464;6.968;2022-09-09T15:33:19;16.60;99.90
22288;DHT22;11312;51.464;6.968;2022-09-09T15:35:45;17.00;99.90
22288;DHT22;11312;51.464;6.968;2022-09-09T15:38:11;16.80;99.90
22288;DHT22;11312;51.464;6.968;2022-09-09T15:40:39;17.00;99.90
22288;DHT22;11312;51.464;6.968;2022-09-09T15:43:06;16.80;99.90
22288;DHT22;11312;51.464;6.968;2022-09-09T15:45:32;16.70;99.90
22288;DHT22;11312;51.464;6.968;2022-09-09T15:48:00;16.70;99.90
22288;DHT22;11312;51.464;6.968;2022-09-09T15:50:26;16.70;99.90
22288;DHT22;11312;51.464;6.968;2022-09-09T15:52:51;16.80;99.90
22288;DHT22;11312;51.464;6.968;2022-09-09T15:55:19;16.70;99.90
22288;DHT22;11312;51.464;6.968;2022-09-09T15:57:46;16.90;99.90
22288;DHT22;11312;51.464;6.968;2022-09-09T16:00:12;17.00;99.90
22288;DHT22;11312;51.464;6.968;2022-09-09T16:02:39;17.00;99.90
22288;DHT22;11312;51.464;6.968;2022-09-09T16:05:05;17.10;99.90
22288;DHT22;11312;51.464;6.968;2022-09-09T16:07:31;17.10;99.90
22288;DHT22;11312;51.464;6.968;2022-09-09T16:09:57;17.10;99.90
22288;DHT22;11312;51.464;6.968;2022-09-09T16:12:23;17.20;99.90
22288;DHT22;11312;51.464;6.968;2022-09-09T16:14:48;17.50;99.90
22288;DHT22;11312;51.464;6.968;2022-09-09T16:17:14;17.30;99.90
22288;DHT22;11312;51.464;6.968;2022-09-09T16:19:40;17.20;99.90
22288;DHT22;11312;51.464;6.968;2022-09-09T16:22:06;17.30;99.90
22288;DHT22;11312;51.464;6.968;2022-09-09T16:24:32;17.20;99.90
22288;DHT22;11312;51.464;6.968;2022-09-09T16:26:58;17.10;99.90
22288;DHT22;11312;51.464;6.968;2022-09-09T16:29:24;17.00;99.90
22288;DHT22;11312;51.464;6.968;2022-09-09T16:31:53;17.10;99.90
22288;DHT22;11312;51.464;6.968;2022-09-09T16:34:19;16.90;99.90
22288;DHT22;11312;51.464;6.968;2022-09-09T16:36:46;16.90;99.90
22288;DHT22;11312;51.464;6.968;2022-09-09T16:39:17;17.20;99.90
22288;DHT22;11312;51.464;6.968;2022-09-09T16:41:44;17.20;99.90
22288;DHT22;11312;51.464;6.968;2022-09-09T16:44:11;17.10;99.90
22288;DHT22;11312;51.464;6.968;2022-09-09T16:46:42;17.10;99.90
22288;DHT22;11312;51.464;6.968;2022-09-09T16:49:10;17.10;99.90
22288;DHT22;11312;51.464;6.968;2022-09-09T16:51:41;16.90;99.90
22288;DHT22;11312;51.464;6.968;2022-09-09T16:54:08;16.90;99.90
22288;DHT22;11312;51.464;6.968;2022-09-09T16:56:36;17.00;99.90
22288;DHT22;11312;51.464;6.968;2022-09-09T16:59:09;17.00;99.90
22288;DHT22;11312;51.464;6.968;2022-09-09T17:01:38;17.00;99.90
22288;DHT22;11312;51.464;6.968;2022-09-09T17:04:06;17.00;99.90
22288;DHT22;11312;51.464;6.968;2022-09-09T17:06:33;16.90;99.90
22288;DHT22;11312;51.464;6.968;2022-09-09T17:09:06;16.80;99.90
22288;DHT22;11312;51.464;6.968;2022-09-09T17:11:32;16.80;99.90
22288;DHT22;11312;51.464;6.968;2022-09-09T17:13:58;16.90;99.90
22288;DHT22;11312;51.464;6.968;2022-09-09T17:16:28;16.90;99.90
22288;DHT22;11312;51.464;6.968;2022-09-09T17:18:54;16.90;99.90
22288;DHT22;11312;51.464;6.968;2022-09-09T17:21:23;16.90;99.90
22288;DHT22;11312;51.464;6.968;2022-09-09T17:23:51;16.90;99.90
22288;DHT22;11312;51.464;6.968;2022-09-09T17:26:19;16.80;99.90
22288;DHT22;11312;51.464;6.968;2022-09-09T17:28:45;16.90;99.90
22288;DHT22;11312;51.464;6.968;2022-09-09T17:31:12;16.80;99.90
22288;DHT22;11312;51.464;6.968;2022-09-09T17:33:40;16.70;99.90
22288;DHT22;11312;51.464;6.968;2022-09-09T17:36:12;16.70;99.90
22288;DHT22;11312;51.464;6.968;2022-09-09T17:38:38;16.70;99.90
22288;DHT22;11312;51.464;6.968;2022-09-09T17:41:07;16.70;99.90
22288;DHT22;11312;51.464;6.968;2022-09-09T17:43:33;16.80;99.90
22288;DHT22;11312;51.464;6.968;2022-09-09T17:46:19;16.80;99.90